sensor_id;sensor_type;location;lat;lon;timestamp;pressure;altitude;pressure_sealevel;temperature;humidity
28354;BME280;15603;50.878;8.036;2023-05-12T00:01:22;146213.81;;;12.47;100.00
28354;BME280;15603;50.878;8.036;2023-05-12T00:03:49;146195.56;;;12.40;100.00
28354;BME280;15603;50.878;8.036;2023-05-12T00:06:19;146189.44;;;12.37;100.00
28354;BME280;15603;50.878;8.036;2023-05-12T00:08:46;146132.28;;;12.13;100.00
28354;BME280;15603;50.878;8.036;2023-05-12T00:11:13;146163.91;;;12.26;100.00
28354;BME280;15603;50.878;8.036;2023-05-12T00:13:41;146166.31;;;12.27;100.00
28354;BME280;15603;50.878;8.036;2023-05-12T00:16:08;146095.78;;;11.97;100.00
28354;BME280;15603;50.878;8.036;2023-05-12T00:18:35;146157.81;;;12.24;100.00
28354;BME280;15603;50.878;8.036;2023-05-12T00:21:03;146123.75;;;12.09;100.00
28354;BME280;15603;50.878;8.036;2023-05-12T00:23:30;146137.13;;;12.15;100.00
28354;BME280;15603;50.878;8.036;2023-05-12T00:25:57;146144.41;;;12.18;100.00
28354;BME280;15603;50.878;8.036;2023-05-12T00:28:24;146149.28;;;12.20;100.00
28354;BME280;15603;50.878;8.036;2023-05-12T00:30:51;146149.28;;;12.20;100.00
28354;BME280;15603;50.878;8.036;2023-05-12T00:33:18;146151.72;;;12.21;100.00
28354;BME280;15603;50.878;8.036;2023-05-12T00:35:45;146127.41;;;12.11;100.00
28354;BME280;15603;50.878;8.036;2023-05-12T00:38:13;146145.66;;;12.18;100.00
28354;BME280;15603;50.878;8.036;2023-05-12T00:40:40;146150.53;;;12.21;100.00
28354;BME280;15603;50.878;8.036;2023-05-12T00:43:07;146137.13;;;12.15;100.00
28354;BME280;15603;50.878;8.036;2023-05-12T00:45:35;146144.41;;;12.18;100.00
28354;BME280;15603;50.878;8.036;2023-05-12T00:48:03;146134.69;;;12.14;100.00
28354;BME280;15603;50.878;8.036;2023-05-12T00:50:30;146139.56;;;12.16;100.00
28354;BME280;15603;50.878;8.036;2023-05-12T00:53:00;146143.22;;;12.17;100.00
28354;BME280;15603;50.878;8.036;2023-05-12T00:55:28;146127.41;;;12.11;100.00
28354;BME280;15603;50.878;8.036;2023-05-12T00:57:56;146120.09;;;12.08;100.00
28354;BME280;15603;50.878;8.036;2023-05-12T01:00:25;146116.44;;;12.06;100.00
28354;BME280;15603;50.878;8.036;2023-05-12T01:02:53;146095.78;;;11.97;100.00
28354;BME280;15603;50.878;8.036;2023-05-12T01:05:30;146103.06;;;12.01;100.00
28354;BME280;15603;50.878;8.036;2023-05-12T01:08:02;146090.91;;;11.95;100.00
28354;BME280;15603;50.878;8.036;2023-05-12T01:10:29;146096.97;;;11.98;100.00
28354;BME280;15603;50.878;8.036;2023-05-12T01:12:56;146073.81;;;11.88;100.00
28354;BME280;15603;50.878;8.036;2023-05-12T01:15:23;146107.91;;;12.03;100.00
28354;BME280;15603;50.878;8.036;2023-05-12T01:17:59;146089.66;;;11.95;100.00
28354;BME280;15603;50.878;8.036;2023-05-12T01:20:29;146101.84;;;12.00;100.00
28354;BME280;15603;50.878;8.036;2023-05-12T01:22:58;146095.78;;;11.97;100.00
28354;BME280;15603;50.878;8.036;2023-05-12T01:25:30;146053.13;;;11.79;100.00
28354;BME280;15603;50.878;8.036;2023-05-12T01:28:01;146117.69;;;12.07;100.00
28354;BME280;15603;50.878;8.036;2023-05-12T01:30:30;146126.16;;;12.10;100.00
28354;BME280;15603;50.878;8.036;2023-05-12T01:32:58;146138.34;;;12.15;100.00
28354;BME280;15603;50.878;8.036;2023-05-12T01:35:25;146129.81;;;12.12;100.00
28354;BME280;15603;50.878;8.036;2023-05-12T01:38:01;146107.91;;;12.03;100.00
28354;BME280;15603;50.878;8.036;2023-05-12T01:40:29;146137.13;;;12.15;100.00
28354;BME280;15603;50.878;8.036;2023-05-12T01:42:57;146107.91;;;12.03;100.00
28354;BME280;15603;50.878;8.036;2023-05-12T01:45:27;146110.38;;;12.04;100.00
28354;BME280;15603;50.878;8.036;2023-05-12T01:47:54;146129.81;;;12.12;100.00
28354;BME280;15603;50.878;8.036;2023-05-12T01:50:21;146127.41;;;12.11;100.00
28354;BME280;15603;50.878;8.036;2023-05-12T01:52:49;146064.09;;;11.84;100.00
28354;BME280;15603;50.878;8.036;2023-05-12T01:55:18;146111.56;;;12.04;100.00
28354;BME280;15603;50.878;8.036;2023-05-12T01:57:51;146098.19;;;11.98;100.00
28354;BME280;15603;50.878;8.036;2023-05-12T02:00:19;146126.16;;;12.10;100.00
28354;BME280;15603;50.878;8.036;2023-05-12T02:02:49;146087.25;;;11.94;100.00
28354;BME280;15603;50.878;8.036;2023-05-12T02:05:17;146114.03;;;12.05;100.00
28354;BME280;15603;50.878;8.036;2023-05-12T02:07:47;146122.56;;;12.09;100.00
28354;BME280;15603;50.878;8.036;2023-05-12T02:10:14;146106.72;;;12.02;100.00
28354;BME280;15603;50.878;8.036;2023-05-12T02:12:42;146088.47;;;11.94;100.00
28354;BME280;15603;50.878;8.036;2023-05-12T02:15:09;146073.81;;;11.88;100.00
28354;BME280;15603;50.878;8.036;2023-05-12T02:17:40;146117.69;;;12.07;100.00
28354;BME280;15603;50.878;8.036;2023-05-12T02:20:08;146093.31;;;11.96;100.00
28354;BME280;15603;50.878;8.036;2023-05-12T02:22:37;146036.13;;;11.72;100.00
28354;BME280;15603;50.878;8.036;2023-05-12T02:25:05;146034.88;;;11.72;100.00
28354;BME280;15603;50.878;8.036;2023-05-12T02:27:32;146051.91;;;11.79;100.00
28354;BME280;15603;50.878;8.036;2023-05-12T02:30:00;146032.47;;;11.71;100.00
28354;BME280;15603;50.878;8.036;2023-05-12T02:32:27;146049.50;;;11.78;100.00
28354;BME280;15603;50.878;8.036;2023-05-12T02:34:55;146011.78;;;11.62;100.00
28354;BME280;15603;50.878;8.036;2023-05-12T02:37:23;146044.66;;;11.76;100.00
28354;BME280;15603;50.878;8.036;2023-05-12T02:39:50;145954.63;;;11.38;100.00
28354;BME280;15603;50.878;8.036;2023-05-12T02:42:18;146028.81;;;11.69;100.00
28354;BME280;15603;50.878;8.036;2023-05-12T02:44:45;146031.25;;;11.70;100.00
28354;BME280;15603;50.878;8.036;2023-05-12T02:47:12;146036.13;;;11.72;100.00
28354;BME280;15603;50.878;8.036;2023-05-12T02:49:39;146008.16;;;11.61;100.00
28354;BME280;15603;50.878;8.036;2023-05-12T02:52:06;146038.53;;;11.73;100.00
28354;BME280;15603;50.878;8.036;2023-05-12T02:54:33;146003.25;;;11.58;100.00
28354;BME280;15603;50.878;8.036;2023-05-12T02:57:04;145969.22;;;11.44;100.00
28354;BME280;15603;50.878;8.036;2023-05-12T02:59:31;145964.34;;;11.42;100.00
28354;BME280;15603;50.878;8.036;2023-05-12T03:01:58;145999.63;;;11.57;100.00
28354;BME280;15603;50.878;8.036;2023-05-12T03:04:26;145991.13;;;11.53;100.00
28354;BME280;15603;50.878;8.036;2023-05-12T03:06:53;146009.34;;;11.61;100.00
28354;BME280;15603;50.878;8.036;2023-05-12T03:09:20;145964.34;;;11.42;100.00
28354;BME280;15603;50.878;8.036;2023-05-12T03:11:47;145954.63;;;11.38;100.00
28354;BME280;15603;50.878;8.036;2023-05-12T03:14:14;145920.56;;;11.24;100.00
28354;BME280;15603;50.878;8.036;2023-05-12T03:16:41;145985.00;;;11.51;100.00
28354;BME280;15603;50.878;8.036;2023-05-12T03:19:09;146000.84;;;11.57;100.00
28354;BME280;15603;50.878;8.036;2023-05-12T03:21:36;145958.28;;;11.39;100.00
28354;BME280;15603;50.878;8.036;2023-05-12T03:24:03;145944.91;;;11.34;100.00
28354;BME280;15603;50.878;8.036;2023-05-12T03:26:30;145964.34;;;11.42;100.00
28354;BME280;15603;50.878;8.036;2023-05-12T03:28:57;146000.84;;;11.57;100.00
28354;BME280;15603;50.878;8.036;2023-05-12T03:31:25;146009.34;;;11.61;100.00
28354;BME280;15603;50.878;8.036;2023-05-12T03:33:52;145975.28;;;11.47;100.00
28354;BME280;15603;50.878;8.036;2023-05-12T03:36:20;145988.66;;;11.52;100.00
28354;BME280;15603;50.878;8.036;2023-05-12T03:38:47;145992.31;;;11.54;100.00
28354;BME280;15603;50.878;8.036;2023-05-12T03:41:15;145975.28;;;11.47;100.00
28354;BME280;15603;50.878;8.036;2023-05-12T03:43:42;146003.25;;;11.58;100.00
28354;BME280;15603;50.878;8.036;2023-05-12T03:46:11;146010.56;;;11.62;100.00
28354;BME280;15603;50.878;8.036;2023-05-12T03:48:38;145974.06;;;11.46;100.00
28354;BME280;15603;50.878;8.036;2023-05-12T03:51:06;145992.31;;;11.54;100.00
28354;BME280;15603;50.878;8.036;2023-05-12T03:53:33;145998.38;;;11.56;100.00
28354;BME280;15603;50.878;8.036;2023-05-12T03:56:04;145966.75;;;11.43;100.00
28354;BME280;15603;50.878;8.036;2023-05-12T03:58:31;145948.50;;;11.35;100.00
28354;BME280;15603;50.878;8.036;2023-05-12T04:00:59;145920.56;;;11.24;100.00
28354;BME280;15603;50.878;8.036;2023-05-12T04:03:28;146004.50;;;11.59;100.00
28354;BME280;15603;50.878;8.036;2023-05-12T04:05:59;145995.97;;;11.55;100.00
28354;BME280;15603;50.878;8.036;2023-05-12T04:08:27;146014.22;;;11.63;100.00
28354;BME280;15603;50.878;8.036;2023-05-12T04:10:55;145993.53;;;11.54;100.00
28354;BME280;15603;50.878;8.036;2023-05-12T04:13:24;145927.88;;;11.27;100.00
28354;BME280;15603;50.878;8.036;2023-05-12T04:15:54;146004.50;;;11.59;100.00
28354;BME280;15603;50.878;8.036;2023-05-12T04:18:23;146015.41;;;11.64;100.00
28354;BME280;15603;50.878;8.036;2023-05-12T04:20:51;146022.75;;;11.67;100.00
28354;BME280;15603;50.878;8.036;2023-05-12T04:23:19;146003.25;;;11.58;100.00
28354;BME280;15603;50.878;8.036;2023-05-12T04:25:46;146006.91;;;11.60;100.00
28354;BME280;15603;50.878;8.036;2023-05-12T04:28:14;146010.56;;;11.62;100.00
28354;BME280;15603;50.878;8.036;2023-05-12T04:30:42;146022.75;;;11.67;100.00
28354;BME280;15603;50.878;8.036;2023-05-12T04:33:09;145988.66;;;11.52;100.00
28354;BME280;15603;50.878;8.036;2023-05-12T04:35:37;145995.97;;;11.55;100.00
28354;BME280;15603;50.878;8.036;2023-05-12T04:38:05;146054.38;;;11.80;100.00
28354;BME280;15603;50.878;8.036;2023-05-12T04:40:32;146047.06;;;11.77;100.00
28354;BME280;15603;50.878;8.036;2023-05-12T04:43:02;146067.75;;;11.86;100.00
28354;BME280;15603;50.878;8.036;2023-05-12T04:45:31;146073.81;;;11.88;100.00
28354;BME280;15603;50.878;8.036;2023-05-12T04:47:58;146064.09;;;11.84;100.00
28354;BME280;15603;50.878;8.036;2023-05-12T04:50:26;146065.31;;;11.85;100.00
28354;BME280;15603;50.878;8.036;2023-05-12T04:52:53;146059.22;;;11.82;100.00
28354;BME280;15603;50.878;8.036;2023-05-12T04:55:20;146064.09;;;11.84;100.00
28354;BME280;15603;50.878;8.036;2023-05-12T04:57:48;146017.88;;;11.65;100.00
28354;BME280;15603;50.878;8.036;2023-05-12T05:00:15;146022.75;;;11.67;100.00
28354;BME280;15603;50.878;8.036;2023-05-12T05:02:44;145998.38;;;11.56;100.00
28354;BME280;15603;50.878;8.036;2023-05-12T05:05:11;146028.81;;;11.69;100.00
28354;BME280;15603;50.878;8.036;2023-05-12T05:07:39;146002.03;;;11.58;100.00
28354;BME280;15603;50.878;8.036;2023-05-12T05:10:07;146075.03;;;11.89;100.00
28354;BME280;15603;50.878;8.036;2023-05-12T05:12:35;146034.88;;;11.72;100.00
28354;BME280;15603;50.878;8.036;2023-05-12T05:15:02;146096.97;;;11.98;100.00
28354;BME280;15603;50.878;8.036;2023-05-12T05:17:29;146079.94;;;11.91;100.00
28354;BME280;15603;50.878;8.036;2023-05-12T05:19:57;146112.78;;;12.05;100.00
28354;BME280;15603;50.878;8.036;2023-05-12T05:22:28;146025.16;;;11.68;100.00
28354;BME280;15603;50.878;8.036;2023-05-12T05:24:56;146137.13;;;12.15;100.00
28354;BME280;15603;50.878;8.036;2023-05-12T05:27:23;146064.09;;;11.84;100.00
28354;BME280;15603;50.878;8.036;2023-05-12T05:29:50;146133.47;;;12.13;100.00
28354;BME280;15603;50.878;8.036;2023-05-12T05:32:17;146143.22;;;12.17;100.00
28354;BME280;15603;50.878;8.036;2023-05-12T05:34:44;146168.78;;;12.28;100.00
28354;BME280;15603;50.878;8.036;2023-05-12T05:37:11;146168.78;;;12.28;100.00
28354;BME280;15603;50.878;8.036;2023-05-12T05:39:38;146174.84;;;12.31;100.00
28354;BME280;15603;50.878;8.036;2023-05-12T05:42:06;146132.28;;;12.13;100.00
28354;BME280;15603;50.878;8.036;2023-05-12T05:44:34;146195.56;;;12.40;100.00
28354;BME280;15603;50.878;8.036;2023-05-12T05:47:02;146190.69;;;12.37;100.00
28354;BME280;15603;50.878;8.036;2023-05-12T05:49:30;146197.97;;;12.41;100.00
28354;BME280;15603;50.878;8.036;2023-05-12T05:51:59;146215.03;;;12.48;100.00
28354;BME280;15603;50.878;8.036;2023-05-12T05:54:26;146163.91;;;12.26;100.00
28354;BME280;15603;50.878;8.036;2023-05-12T05:56:53;146168.78;;;12.28;100.00
28354;BME280;15603;50.878;8.036;2023-05-12T05:59:20;146194.31;;;12.39;100.00
28354;BME280;15603;50.878;8.036;2023-05-12T06:01:47;146200.44;;;12.42;100.00
28354;BME280;15603;50.878;8.036;2023-05-12T06:04:15;146229.63;;;12.54;100.00
28354;BME280;15603;50.878;8.036;2023-05-12T06:06:42;146180.91;;;12.33;100.00
28354;BME280;15603;50.878;8.036;2023-05-12T06:09:09;146180.91;;;12.33;100.00
28354;BME280;15603;50.878;8.036;2023-05-12T06:11:38;146212.56;;;12.47;100.00
28354;BME280;15603;50.878;8.036;2023-05-12T06:14:05;146244.22;;;12.60;100.00
28354;BME280;15603;50.878;8.036;2023-05-12T06:16:32;146246.66;;;12.61;100.00
28354;BME280;15603;50.878;8.036;2023-05-12T06:18:59;146229.63;;;12.54;100.00
28354;BME280;15603;50.878;8.036;2023-05-12T06:21:26;146297.78;;;12.83;100.00
28354;BME280;15603;50.878;8.036;2023-05-12T06:23:53;146210.16;;;12.46;100.00
28354;BME280;15603;50.878;8.036;2023-05-12T06:26:22;146284.38;;;12.77;100.00
28354;BME280;15603;50.878;8.036;2023-05-12T06:28:49;146280.72;;;12.75;100.00
28354;BME280;15603;50.878;8.036;2023-05-12T06:31:16;146256.41;;;12.65;100.00
28354;BME280;15603;50.878;8.036;2023-05-12T06:33:43;146275.84;;;12.73;100.00
28354;BME280;15603;50.878;8.036;2023-05-12T06:36:11;146322.13;;;12.93;100.00
28354;BME280;15603;50.878;8.036;2023-05-12T06:38:38;146336.75;;;12.99;100.00
28354;BME280;15603;50.878;8.036;2023-05-12T06:41:05;146363.50;;;13.10;100.00
28354;BME280;15603;50.878;8.036;2023-05-12T06:43:33;146233.28;;;12.55;100.00
28354;BME280;15603;50.878;8.036;2023-05-12T06:46:02;146320.91;;;12.92;100.00
28354;BME280;15603;50.878;8.036;2023-05-12T06:48:29;146355.03;;;13.07;100.00
28354;BME280;15603;50.878;8.036;2023-05-12T06:50:56;146290.47;;;12.80;100.00
28354;BME280;15603;50.878;8.036;2023-05-12T06:53:28;146262.47;;;12.68;100.00
28354;BME280;15603;50.878;8.036;2023-05-12T06:55:55;146328.22;;;12.95;100.00
28354;BME280;15603;50.878;8.036;2023-05-12T06:58:23;146380.56;;;13.18;100.00
28354;BME280;15603;50.878;8.036;2023-05-12T07:00:50;146407.34;;;13.29;100.00
28354;BME280;15603;50.878;8.036;2023-05-12T07:03:17;146356.22;;;13.07;100.00
28354;BME280;15603;50.878;8.036;2023-05-12T07:05:44;146398.81;;;13.25;100.00
28354;BME280;15603;50.878;8.036;2023-05-12T07:08:12;146417.13;;;13.33;100.00
28354;BME280;15603;50.878;8.036;2023-05-12T07:10:39;146419.59;;;13.34;100.00
28354;BME280;15603;50.878;8.036;2023-05-12T07:13:06;146351.34;;;13.05;100.00
28354;BME280;15603;50.878;8.036;2023-05-12T07:15:33;146456.13;;;13.49;100.00
28354;BME280;15603;50.878;8.036;2023-05-12T07:18:00;146431.75;;;13.39;100.00
28354;BME280;15603;50.878;8.036;2023-05-12T07:20:28;146521.88;;;13.77;100.00
28354;BME280;15603;50.878;8.036;2023-05-12T07:22:55;146565.75;;;13.96;100.00
28354;BME280;15603;50.878;8.036;2023-05-12T07:25:22;146456.13;;;13.49;100.00
28354;BME280;15603;50.878;8.036;2023-05-12T07:27:49;146553.56;;;13.90;100.00
28354;BME280;15603;50.878;8.036;2023-05-12T07:30:16;146529.22;;;13.80;100.00
28354;BME280;15603;50.878;8.036;2023-05-12T07:32:44;146565.75;;;13.96;100.00
28354;BME280;15603;50.878;8.036;2023-05-12T07:35:12;146506.06;;;13.70;100.00
28354;BME280;15603;50.878;8.036;2023-05-12T07:37:39;146585.22;;;14.04;100.00
28354;BME280;15603;50.878;8.036;2023-05-12T07:40:07;146730.31;;;14.65;100.00
28354;BME280;15603;50.878;8.036;2023-05-12T07:42:34;146672.97;;;14.41;100.00
28354;BME280;15603;50.878;8.036;2023-05-12T07:45:02;146657.13;;;14.34;100.00
28354;BME280;15603;50.878;8.036;2023-05-12T07:47:29;146660.75;;;14.36;100.00
28354;BME280;15603;50.878;8.036;2023-05-12T07:49:56;146704.66;;;14.54;100.00
28354;BME280;15603;50.878;8.036;2023-05-12T07:52:23;146788.78;;;14.89;100.00
28354;BME280;15603;50.878;8.036;2023-05-12T07:54:51;146819.25;;;15.02;100.00
28354;BME280;15603;50.878;8.036;2023-05-12T07:57:18;146785.16;;;14.88;96.78
28354;BME280;15603;50.878;8.036;2023-05-12T07:59:45;146794.91;;;14.92;100.00
28354;BME280;15603;50.878;8.036;2023-05-12T08:02:12;146826.59;;;15.05;100.00
28354;BME280;15603;50.878;8.036;2023-05-12T08:04:39;146914.38;;;15.42;100.00
28354;BME280;15603;50.878;8.036;2023-05-12T08:07:09;146969.25;;;15.65;99.40
28354;BME280;15603;50.878;8.036;2023-05-12T08:09:36;146926.59;;;15.47;97.06
28354;BME280;15603;50.878;8.036;2023-05-12T08:12:03;146925.34;;;15.47;96.61
28354;BME280;15603;50.878;8.036;2023-05-12T08:14:30;146938.75;;;15.52;95.30
28354;BME280;15603;50.878;8.036;2023-05-12T08:16:57;146932.66;;;15.50;95.43
28354;BME280;15603;50.878;8.036;2023-05-12T08:19:24;146963.16;;;15.63;96.20
28354;BME280;15603;50.878;8.036;2023-05-12T08:21:51;146921.72;;;15.45;96.41
28354;BME280;15603;50.878;8.036;2023-05-12T08:24:19;146990.00;;;15.74;96.17
28354;BME280;15603;50.878;8.036;2023-05-12T08:26:47;146953.38;;;15.59;95.49
28354;BME280;15603;50.878;8.036;2023-05-12T08:29:14;147019.31;;;15.86;95.67
28354;BME280;15603;50.878;8.036;2023-05-12T08:31:42;147062.00;;;16.04;93.93
28354;BME280;15603;50.878;8.036;2023-05-12T08:34:09;147027.84;;;15.90;94.29
28354;BME280;15603;50.878;8.036;2023-05-12T08:36:38;147043.69;;;15.97;90.75
28354;BME280;15603;50.878;8.036;2023-05-12T08:39:05;147096.16;;;16.19;92.53
28354;BME280;15603;50.878;8.036;2023-05-12T08:44:22;147064.44;;;16.05;89.89
28354;BME280;15603;50.878;8.036;2023-05-12T08:46:51;147073.00;;;16.09;90.50
28354;BME280;15603;50.878;8.036;2023-05-12T08:49:21;147051.03;;;16.00;90.46
28354;BME280;15603;50.878;8.036;2023-05-12T08:51:52;147158.38;;;16.45;88.49
28354;BME280;15603;50.878;8.036;2023-05-12T08:54:26;147155.97;;;16.44;87.94
28354;BME280;15603;50.878;8.036;2023-05-12T08:56:54;147127.91;;;16.32;89.02
28354;BME280;15603;50.878;8.036;2023-05-12T08:59:24;147124.22;;;16.31;89.22
28354;BME280;15603;50.878;8.036;2023-05-12T09:01:53;147173.00;;;16.51;85.04
28354;BME280;15603;50.878;8.036;2023-05-12T09:04:20;147234.06;;;16.77;84.89
28354;BME280;15603;50.878;8.036;2023-05-12T09:06:48;147275.59;;;16.94;84.50
28354;BME280;15603;50.878;8.036;2023-05-12T09:09:16;147317.09;;;17.12;83.55
28354;BME280;15603;50.878;8.036;2023-05-12T09:11:43;147263.38;;;16.89;85.36
28354;BME280;15603;50.878;8.036;2023-05-12T09:14:16;147324.41;;;17.15;85.69
28354;BME280;15603;50.878;8.036;2023-05-12T09:16:46;147225.50;;;16.73;81.12
28354;BME280;15603;50.878;8.036;2023-05-12T09:19:19;147287.78;;;16.99;83.28
28354;BME280;15603;50.878;8.036;2023-05-12T09:21:47;147302.47;;;17.05;82.37
28354;BME280;15603;50.878;8.036;2023-05-12T09:24:14;147345.16;;;17.23;82.38
28354;BME280;15603;50.878;8.036;2023-05-12T09:26:46;147325.66;;;17.15;79.30
28354;BME280;15603;50.878;8.036;2023-05-12T09:29:15;147281.69;;;16.97;79.59
28354;BME280;15603;50.878;8.036;2023-05-12T09:31:55;147280.47;;;16.96;81.68
28354;BME280;15603;50.878;8.036;2023-05-12T09:34:29;147312.22;;;17.10;83.69
28354;BME280;15603;50.878;8.036;2023-05-12T09:36:58;147335.41;;;17.19;81.04
28354;BME280;15603;50.878;8.036;2023-05-12T09:39:25;147380.59;;;17.38;79.62
28354;BME280;15603;50.878;8.036;2023-05-12T09:41:52;147429.41;;;17.59;81.46
28354;BME280;15603;50.878;8.036;2023-05-12T09:44:20;147395.22;;;17.44;79.08
28354;BME280;15603;50.878;8.036;2023-05-12T09:46:49;147386.69;;;17.41;78.51
28354;BME280;15603;50.878;8.036;2023-05-12T09:49:21;147475.84;;;17.78;79.46
28354;BME280;15603;50.878;8.036;2023-05-12T09:51:52;147512.53;;;17.94;78.83
28354;BME280;15603;50.878;8.036;2023-05-12T09:54:27;147566.25;;;18.16;77.84
28354;BME280;15603;50.878;8.036;2023-05-12T09:56:59;147642.00;;;18.48;76.62
28354;BME280;15603;50.878;8.036;2023-05-12T09:59:30;147716.53;;;18.79;72.00
28354;BME280;15603;50.878;8.036;2023-05-12T10:02:01;147656.66;;;18.54;70.66
28354;BME280;15603;50.878;8.036;2023-05-12T10:04:36;147671.31;;;18.60;72.30
28354;BME280;15603;50.878;8.036;2023-05-12T10:07:09;147722.66;;;18.82;73.55
28354;BME280;15603;50.878;8.036;2023-05-12T10:09:39;147695.78;;;18.71;73.79
28354;BME280;15603;50.878;8.036;2023-05-12T10:12:08;147671.31;;;18.60;68.97
28354;BME280;15603;50.878;8.036;2023-05-12T10:14:36;147782.53;;;19.07;71.54
28354;BME280;15603;50.878;8.036;2023-05-12T10:17:04;147756.91;;;18.96;69.06
28354;BME280;15603;50.878;8.036;2023-05-12T10:19:33;147815.59;;;19.21;69.64
28354;BME280;15603;50.878;8.036;2023-05-12T10:22:01;147725.13;;;18.83;66.67
28354;BME280;15603;50.878;8.036;2023-05-12T10:24:29;147716.53;;;18.79;67.41
28354;BME280;15603;50.878;8.036;2023-05-12T10:26:56;147758.13;;;18.97;66.55
28354;BME280;15603;50.878;8.036;2023-05-12T10:29:26;147656.66;;;18.54;67.78
28354;BME280;15603;50.878;8.036;2023-05-12T10:31:58;147635.84;;;18.45;65.31
28354;BME280;15603;50.878;8.036;2023-05-12T10:34:40;147690.84;;;18.69;66.86
28354;BME280;15603;50.878;8.036;2023-05-12T10:37:09;147805.81;;;19.17;65.59
28354;BME280;15603;50.878;8.036;2023-05-12T10:39:47;147818.00;;;19.22;63.55
28354;BME280;15603;50.878;8.036;2023-05-12T10:42:16;147906.00;;;19.59;62.85
28354;BME280;15603;50.878;8.036;2023-05-12T10:44:52;147939.09;;;19.73;64.67
28354;BME280;15603;50.878;8.036;2023-05-12T10:47:41;148023.47;;;20.08;61.77
28354;BME280;15603;50.878;8.036;2023-05-12T10:50:08;147978.22;;;19.89;63.77
28354;BME280;15603;50.878;8.036;2023-05-12T10:52:52;148006.34;;;20.01;63.10
28354;BME280;15603;50.878;8.036;2023-05-12T10:55:30;148079.72;;;20.32;60.97
28354;BME280;15603;50.878;8.036;2023-05-12T10:58:23;148088.28;;;20.35;61.68
28354;BME280;15603;50.878;8.036;2023-05-12T11:00:51;147977.00;;;19.89;60.46
28354;BME280;15603;50.878;8.036;2023-05-12T11:03:24;148016.09;;;20.05;60.98
28354;BME280;15603;50.878;8.036;2023-05-12T11:06:01;148027.13;;;20.10;59.06
28354;BME280;15603;50.878;8.036;2023-05-12T11:08:29;147885.25;;;19.50;60.30
28354;BME280;15603;50.878;8.036;2023-05-12T11:11:01;147888.94;;;19.52;63.62
28354;BME280;15603;50.878;8.036;2023-05-12T11:13:29;148014.91;;;20.05;61.60
28354;BME280;15603;50.878;8.036;2023-05-12T11:15:56;148022.25;;;20.08;60.37
28354;BME280;15603;50.878;8.036;2023-05-12T11:18:24;148024.69;;;20.09;60.36
28354;BME280;15603;50.878;8.036;2023-05-12T11:20:51;148030.81;;;20.11;60.54
28354;BME280;15603;50.878;8.036;2023-05-12T11:23:25;148113.97;;;20.46;57.16
28354;BME280;15603;50.878;8.036;2023-05-12T11:25:55;148055.28;;;20.22;57.75
28354;BME280;15603;50.878;8.036;2023-05-12T11:28:23;148089.50;;;20.36;57.91
28354;BME280;15603;50.878;8.036;2023-05-12T11:30:53;148100.53;;;20.40;59.59
28354;BME280;15603;50.878;8.036;2023-05-12T11:33:21;148140.91;;;20.57;57.02
28354;BME280;15603;50.878;8.036;2023-05-12T11:35:49;148138.44;;;20.56;57.41
28354;BME280;15603;50.878;8.036;2023-05-12T11:38:17;148182.53;;;20.75;58.07
28354;BME280;15603;50.878;8.036;2023-05-12T11:40:45;148063.84;;;20.25;59.15
28354;BME280;15603;50.878;8.036;2023-05-12T11:43:12;148047.91;;;20.18;60.23
28354;BME280;15603;50.878;8.036;2023-05-12T11:45:41;148127.44;;;20.52;59.92
28354;BME280;15603;50.878;8.036;2023-05-12T11:48:12;148229.03;;;20.94;58.06
28354;BME280;15603;50.878;8.036;2023-05-12T11:50:44;148276.72;;;21.14;58.24
28354;BME280;15603;50.878;8.036;2023-05-12T11:53:16;148154.41;;;20.63;57.03
28354;BME280;15603;50.878;8.036;2023-05-12T11:55:54;148199.63;;;20.82;54.67
28354;BME280;15603;50.878;8.036;2023-05-12T11:58:23;148313.44;;;21.30;56.63
28354;BME280;15603;50.878;8.036;2023-05-12T12:00:56;148346.53;;;21.44;54.32
28354;BME280;15603;50.878;8.036;2023-05-12T12:03:44;148435.91;;;21.81;53.74
28354;BME280;15603;50.878;8.036;2023-05-12T12:06:13;148363.69;;;21.51;52.41
28354;BME280;15603;50.878;8.036;2023-05-12T12:08:54;148358.78;;;21.49;50.87
28354;BME280;15603;50.878;8.036;2023-05-12T12:11:23;148302.44;;;21.25;52.02
28354;BME280;15603;50.878;8.036;2023-05-12T12:13:53;148265.75;;;21.10;52.22
28354;BME280;15603;50.878;8.036;2023-05-12T12:16:29;148182.53;;;20.75;54.70
28354;BME280;15603;50.878;8.036;2023-05-12T12:18:57;148238.81;;;20.98;54.11
28354;BME280;15603;50.878;8.036;2023-05-12T12:21:24;148241.22;;;20.99;55.04
28354;BME280;15603;50.878;8.036;2023-05-12T12:23:51;148319.56;;;21.32;55.06
28354;BME280;15603;50.878;8.036;2023-05-12T12:26:18;148248.59;;;21.03;54.58
28354;BME280;15603;50.878;8.036;2023-05-12T12:28:47;148314.66;;;21.30;55.45
28354;BME280;15603;50.878;8.036;2023-05-12T12:31:15;148202.09;;;20.83;52.24
28354;BME280;15603;50.878;8.036;2023-05-12T12:33:42;148241.22;;;20.99;54.54
28354;BME280;15603;50.878;8.036;2023-05-12T12:36:09;148209.47;;;20.86;55.02
28354;BME280;15603;50.878;8.036;2023-05-12T12:38:36;148224.13;;;20.92;54.14
28354;BME280;15603;50.878;8.036;2023-05-12T12:41:05;148145.84;;;20.59;57.26
28354;BME280;15603;50.878;8.036;2023-05-12T12:43:32;148226.56;;;20.93;54.95
28354;BME280;15603;50.878;8.036;2023-05-12T12:45:59;148317.13;;;21.31;56.41
28354;BME280;15603;50.878;8.036;2023-05-12T12:48:26;148322.03;;;21.33;56.23
28354;BME280;15603;50.878;8.036;2023-05-12T12:50:54;148178.88;;;20.73;53.92
28354;BME280;15603;50.878;8.036;2023-05-12T12:53:22;148112.72;;;20.46;57.68